sensor_id;sensor_type;location;lat;lon;timestamp;pressure;altitude;pressure_sealevel;temperature
25985;BMP280;66753;53.848;10.658;2023-04-25T00:05:40;100361.63;;;9.95
25985;BMP280;66753;53.848;10.658;2023-04-25T00:20:41;100382.09;;;9.98
25985;BMP280;66753;53.848;10.658;2023-04-25T00:35:46;100384.44;;;9.99
25985;BMP280;66753;53.848;10.658;2023-04-25T00:50:51;100389.53;;;9.92
25985;BMP280;66753;53.848;10.658;2023-04-25T01:05:53;100351.78;;;9.56
25985;BMP280;66753;53.848;10.658;2023-04-25T01:20:54;100356.44;;;9.47
25985;BMP280;66753;53.848;10.658;2023-04-25T01:35:55;100351.84;;;9.32
25985;BMP280;66753;53.848;10.658;2023-04-25T01:50:55;100357.81;;;9.17
25985;BMP280;66753;53.848;10.658;2023-04-25T02:05:55;100344.78;;;9.00
25985;BMP280;66753;53.848;10.658;2023-04-25T02:20:57;100367.78;;;8.87
25985;BMP280;66753;53.848;10.658;2023-04-25T02:35:57;100377.00;;;8.81
25985;BMP280;66753;53.848;10.658;2023-04-25T02:50:58;100369.84;;;8.69
25985;BMP280;66753;53.848;10.658;2023-04-25T03:05:58;100368.38;;;8.48
25985;BMP280;66753;53.848;10.658;2023-04-25T03:20:59;100358.88;;;8.14
25985;BMP280;66753;53.848;10.658;2023-04-25T03:35:59;100360.88;;;7.76
25985;BMP280;66753;53.848;10.658;2023-04-25T03:51:00;100362.91;;;7.71
25985;BMP280;66753;53.848;10.658;2023-04-25T04:06:00;100361.94;;;7.55
25985;BMP280;66753;53.848;10.658;2023-04-25T04:21:00;100379.41;;;7.39
25985;BMP280;66753;53.848;10.658;2023-04-25T04:36:01;100387.13;;;7.44
25985;BMP280;66753;53.848;10.658;2023-04-25T04:51:02;100405.44;;;7.69
25985;BMP280;66753;53.848;10.658;2023-04-25T05:06:03;100428.88;;;7.91
25985;BMP280;66753;53.848;10.658;2023-04-25T05:21:04;100433.78;;;8.10
25985;BMP280;66753;53.848;10.658;2023-04-25T05:36:04;100446.03;;;8.26
25985;BMP280;66753;53.848;10.658;2023-04-25T05:51:05;100458.34;;;8.43
25985;BMP280;66753;53.848;10.658;2023-04-25T06:06:06;100451.91;;;8.32
25985;BMP280;66753;53.848;10.658;2023-04-25T06:21:06;100467.41;;;8.74
25985;BMP280;66753;53.848;10.658;2023-04-25T06:36:07;100469.47;;;9.14
25985;BMP280;66753;53.848;10.658;2023-04-25T06:51:07;100475.25;;;9.28
25985;BMP280;66753;53.848;10.658;2023-04-25T07:06:08;100503.06;;;9.58
25985;BMP280;66753;53.848;10.658;2023-04-25T07:21:08;100508.44;;;9.49
25985;BMP280;66753;53.848;10.658;2023-04-25T07:36:08;100526.59;;;10.23
25985;BMP280;66753;53.848;10.658;2023-04-25T07:51:09;100527.38;;;10.90
25985;BMP280;66753;53.848;10.658;2023-04-25T08:06:10;100531.03;;;10.58
25985;BMP280;66753;53.848;10.658;2023-04-25T08:21:10;100552.69;;;10.60
25985;BMP280;66753;53.848;10.658;2023-04-25T08:36:11;100582.53;;;11.90
25985;BMP280;66753;53.848;10.658;2023-04-25T08:51:19;100548.81;;;11.44
25985;BMP280;66753;53.848;10.658;2023-04-25T09:06:23;100573.22;;;11.34
25985;BMP280;66753;53.848;10.658;2023-04-25T09:21:23;100603.97;;;11.66
25985;BMP280;66753;53.848;10.658;2023-04-25T09:36:26;100582.38;;;11.21
25985;BMP280;66753;53.848;10.658;2023-04-25T09:51:26;100627.34;;;11.76
25985;BMP280;66753;53.848;10.658;2023-04-25T10:06:28;100611.09;;;12.27
25985;BMP280;66753;53.848;10.658;2023-04-25T10:21:31;100649.44;;;12.11
25985;BMP280;66753;53.848;10.658;2023-04-25T10:36:33;100684.38;;;10.84
25985;BMP280;66753;53.848;10.658;2023-04-25T10:51:34;100693.41;;;11.07
25985;BMP280;66753;53.848;10.658;2023-04-25T11:22:03;100713.94;;;12.58
25985;BMP280;66753;53.848;10.658;2023-04-25T11:37:04;100701.97;;;13.43
25985;BMP280;66753;53.848;10.658;2023-04-25T11:52:06;100749.84;;;11.74
25985;BMP280;66753;53.848;10.658;2023-04-25T12:07:09;100744.28;;;10.61
25985;BMP280;66753;53.848;10.658;2023-04-25T12:22:28;100744.09;;;11.29
25985;BMP280;66753;53.848;10.658;2023-04-25T12:37:28;100761.53;;;12.63
25985;BMP280;66753;53.848;10.658;2023-04-25T12:52:28;100834.94;;;10.10
25985;BMP280;66753;53.848;10.658;2023-04-25T13:07:29;100819.94;;;10.14
25985;BMP280;66753;53.848;10.658;2023-04-25T13:22:30;100790.00;;;12.31
25985;BMP280;66753;53.848;10.658;2023-04-25T13:37:30;100765.59;;;13.29
25985;BMP280;66753;53.848;10.658;2023-04-25T13:52:32;100781.06;;;13.05
25985;BMP280;66753;53.848;10.658;2023-04-25T14:07:34;100768.19;;;13.07
25985;BMP280;66753;53.848;10.658;2023-04-25T14:22:35;100754.94;;;12.26
25985;BMP280;66753;53.848;10.658;2023-04-25T14:37:35;100808.09;;;11.55
25985;BMP280;66753;53.848;10.658;2023-04-25T14:52:35;100820.09;;;11.37
25985;BMP280;66753;53.848;10.658;2023-04-25T15:07:37;100855.97;;;12.41
25985;BMP280;66753;53.848;10.658;2023-04-25T15:22:40;100878.81;;;11.36
25985;BMP280;66753;53.848;10.658;2023-04-25T15:37:41;100867.63;;;11.54
25985;BMP280;66753;53.848;10.658;2023-04-25T15:52:41;100881.09;;;12.01
25985;BMP280;66753;53.848;10.658;2023-04-25T16:07:44;100881.69;;;10.95
25985;BMP280;66753;53.848;10.658;2023-04-25T16:22:44;100895.38;;;10.73
25985;BMP280;66753;53.848;10.658;2023-04-25T16:37:46;100908.31;;;9.02
25985;BMP280;66753;53.848;10.658;2023-04-25T16:52:48;100913.09;;;11.05
25985;BMP280;66753;53.848;10.658;2023-04-25T17:07:49;100924.47;;;12.32
25985;BMP280;66753;53.848;10.658;2023-04-25T17:22:49;100917.06;;;11.11
25985;BMP280;66753;53.848;10.658;2023-04-25T17:37:51;100945.59;;;11.14
25985;BMP280;66753;53.848;10.658;2023-04-25T17:52:51;100937.53;;;10.21
25985;BMP280;66753;53.848;10.658;2023-04-25T18:07:52;100936.03;;;10.12
25985;BMP280;66753;53.848;10.658;2023-04-25T18:22:52;100956.44;;;9.62
25985;BMP280;66753;53.848;10.658;2023-04-25T18:37:53;100965.09;;;8.96
25985;BMP280;66753;53.848;10.658;2023-04-25T18:52:53;101009.44;;;8.56
25985;BMP280;66753;53.848;10.658;2023-04-25T19:07:54;101041.25;;;8.42
25985;BMP280;66753;53.848;10.658;2023-04-25T19:22:54;101074.16;;;8.19
25985;BMP280;66753;53.848;10.658;2023-04-25T19:37:55;101090.53;;;7.99
25985;BMP280;66753;53.848;10.658;2023-04-25T19:52:56;101092.00;;;7.83
25985;BMP280;66753;53.848;10.658;2023-04-25T20:07:57;101089.91;;;7.63
25985;BMP280;66753;53.848;10.658;2023-04-25T20:22:57;101093.56;;;7.32
25985;BMP280;66753;53.848;10.658;2023-04-25T20:37:58;101084.97;;;7.04
25985;BMP280;66753;53.848;10.658;2023-04-25T20:52:58;101101.44;;;6.74
25985;BMP280;66753;53.848;10.658;2023-04-25T21:07:58;101125.44;;;6.86
25985;BMP280;66753;53.848;10.658;2023-04-25T21:22:59;101119.28;;;6.77
25985;BMP280;66753;53.848;10.658;2023-04-25T21:37:59;101131.31;;;6.56
25985;BMP280;66753;53.848;10.658;2023-04-25T21:53:00;101127.19;;;6.50
25985;BMP280;66753;53.848;10.658;2023-04-25T22:08:00;101119.28;;;6.23
25985;BMP280;66753;53.848;10.658;2023-04-25T22:23:02;101123.38;;;6.02
25985;BMP280;66753;53.848;10.658;2023-04-25T22:38:03;101135.00;;;5.82
25985;BMP280;66753;53.848;10.658;2023-04-25T22:53:03;101144.41;;;5.70
25985;BMP280;66753;53.848;10.658;2023-04-25T23:08:04;101144.44;;;5.51
25985;BMP280;66753;53.848;10.658;2023-04-25T23:23:05;101149.78;;;5.46
25985;BMP280;66753;53.848;10.658;2023-04-25T23:38:06;101161.91;;;5.42
25985;BMP280;66753;53.848;10.658;2023-04-25T23:53:08;101183.50;;;5.39
